createdAt,value
2018-08-10T00:00:10.404Z,99096.23
2018-08-10T00:02:41.152Z,99096.60
2018-08-10T00:05:12.542Z,99098.48
2018-08-10T00:07:43.500Z,99090.78
2018-08-10T00:10:15.629Z,99095.43
2018-08-10T00:12:46.229Z,99095.95
2018-08-10T00:15:16.842Z,99098.33
2018-08-10T00:17:47.507Z,99097.70
2018-08-10T00:20:18.123Z,99101.73
2018-08-10T00:22:48.668Z,99107.05
2018-08-10T00:25:19.838Z,99103.20
2018-08-10T00:27:50.337Z,99106.38
2018-08-10T00:30:21.216Z,99101.54
2018-08-10T00:32:52.551Z,99099.09
2018-08-10T00:35:23.640Z,99090.10
2018-08-10T00:37:54.327Z,99085.43
2018-08-10T00:40:25.313Z,99079.11
2018-08-10T00:42:55.976Z,99059.81
2018-08-10T00:45:26.519Z,99054.51
2018-08-10T00:47:57.312Z,99061.35
2018-08-10T00:50:28.511Z,99078.84
2018-08-10T00:52:58.970Z,99083.98
2018-08-10T00:55:30.540Z,99084.52
2018-08-10T00:58:01.052Z,99091.27
2018-08-10T01:00:32.712Z,99088.98
2018-08-10T01:03:03.942Z,99085.37
2018-08-10T01:05:34.442Z,99076.22
2018-08-10T01:08:05.188Z,99080.38
2018-08-10T01:10:36.403Z,99086.52
2018-08-10T01:13:07.774Z,99090.02
2018-08-10T01:15:38.474Z,99092.38
2018-08-10T01:18:09.040Z,99091.55
2018-08-10T01:20:40.225Z,99095.72
2018-08-10T01:23:11.790Z,99101.05
2018-08-10T01:25:42.980Z,99105.98
2018-08-10T01:28:14.022Z,99100.67
2018-08-10T01:30:44.797Z,99094.72
2018-08-10T01:33:15.312Z,99097.05
2018-08-10T01:35:46.910Z,99099.03
2018-08-10T01:38:17.823Z,99095.04
2018-08-10T01:40:48.325Z,99089.67
2018-08-10T01:43:18.826Z,99085.03
2018-08-10T01:45:49.463Z,99073.08
2018-08-10T01:48:20.069Z,99084.05
2018-08-10T01:50:51.495Z,99084.71
2018-08-10T01:53:21.965Z,99079.24
2018-08-10T01:55:52.884Z,99082.75
2018-08-10T01:58:23.602Z,99075.43
2018-08-10T02:00:54.097Z,99068.30
2018-08-10T02:03:24.642Z,99055.83
2018-08-10T02:05:56.143Z,99045.88
2018-08-10T02:08:27.017Z,99045.84
2018-08-10T02:10:57.938Z,99046.17
2018-08-10T02:13:28.532Z,99047.84
2018-08-10T02:15:59.053Z,99037.02
2018-08-10T02:18:29.902Z,99039.19
2018-08-10T02:21:01.401Z,99037.50
2018-08-10T02:23:31.862Z,99031.36
2018-08-10T02:26:02.481Z,99034.55
2018-08-10T02:28:33.029Z,99034.05
2018-08-10T02:31:03.511Z,99032.05
2018-08-10T02:33:33.989Z,99034.25
2018-08-10T02:36:04.492Z,99034.29
2018-08-10T02:38:35.623Z,99032.27
2018-08-10T02:41:06.199Z,99027.98
2018-08-10T02:43:36.782Z,99030.95
2018-08-10T02:46:07.845Z,99034.95
2018-08-10T02:48:38.480Z,99035.62
2018-08-10T02:51:08.966Z,99038.27
2018-08-10T02:53:39.297Z,99043.27
2018-08-10T02:56:09.667Z,99041.91
2018-08-10T02:58:41.432Z,99037.93
2018-08-10T03:01:12.075Z,99039.26
2018-08-10T03:03:43.252Z,99035.24
2018-08-10T03:06:13.935Z,99047.19
2018-08-10T03:08:44.614Z,99049.84
2018-08-10T03:11:15.253Z,99051.17
2018-08-10T03:13:46.037Z,99052.50
2018-08-10T03:16:16.674Z,99055.82
2018-08-10T03:18:47.288Z,99062.80
2018-08-10T03:21:17.965Z,99058.48
2018-08-10T03:23:48.410Z,99062.50
2018-08-10T03:26:19.012Z,99066.30
2018-08-10T03:28:49.596Z,99069.58
2018-08-10T03:31:20.203Z,99067.09
2018-08-10T03:33:50.944Z,99079.34
2018-08-10T03:36:21.322Z,99077.20
2018-08-10T03:38:51.905Z,99083.47
2018-08-10T03:41:22.663Z,99090.59
2018-08-10T03:43:53.422Z,99093.91
2018-08-10T03:46:24.034Z,99094.56
2018-08-10T03:48:55.296Z,99095.38
2018-08-10T03:51:25.882Z,99103.45
2018-08-10T03:53:56.419Z,99107.25
2018-08-10T03:56:27.346Z,99114.00
2018-08-10T03:58:58.047Z,99113.33
2018-08-10T04:01:29.129Z,99112.82
2018-08-10T04:03:59.604Z,99117.94
2018-08-10T04:06:30.868Z,99125.00
2018-08-10T04:09:01.763Z,99122.69
2018-08-10T04:11:32.467Z,99121.00
2018-08-10T04:14:03.138Z,99127.82
2018-08-10T04:16:33.690Z,99125.22
2018-08-10T04:19:04.112Z,99133.03
2018-08-10T04:21:35.384Z,99124.42
2018-08-10T04:24:06.594Z,99124.80
2018-08-10T04:26:37.190Z,99125.66
2018-08-10T04:29:07.835Z,99121.22
2018-08-10T04:31:38.542Z,99131.30
2018-08-10T04:34:09.030Z,99138.95
2018-08-10T04:36:39.791Z,99144.27
2018-08-10T04:39:13.902Z,99141.63
2018-08-10T04:41:45.568Z,99142.32
2018-08-10T04:44:16.097Z,99138.84
2018-08-10T04:46:46.455Z,99150.96
2018-08-10T04:49:16.888Z,99148.80
2018-08-10T04:51:48.200Z,99153.95
2018-08-10T04:54:19.683Z,99159.91
2018-08-10T04:56:50.214Z,99153.42
2018-08-10T04:59:21.371Z,99149.45
2018-08-10T05:01:51.962Z,99153.14
2018-08-10T05:04:22.593Z,99155.66
2018-08-10T05:06:53.061Z,99161.03
2018-08-10T05:09:24.514Z,99167.52
2018-08-10T05:11:55.144Z,99163.05
2018-08-10T05:14:25.870Z,99165.03
2018-08-10T05:16:56.458Z,99161.05
2018-08-10T05:19:27.069Z,99158.05
2018-08-10T05:21:58.898Z,99166.42
2018-08-10T05:24:29.529Z,99170.91
2018-08-10T05:27:00.087Z,99176.09
2018-08-10T05:29:30.571Z,99175.44
2018-08-10T05:32:01.202Z,99171.45
2018-08-10T05:34:32.065Z,99177.30
2018-08-10T05:37:02.652Z,99184.91
2018-08-10T05:39:34.989Z,99193.75
2018-08-10T05:42:05.803Z,99211.52
2018-08-10T05:44:36.510Z,99218.77
2018-08-10T05:47:07.148Z,99209.00
2018-08-10T05:49:38.218Z,99216.03
2018-08-10T05:52:09.793Z,99215.61
2018-08-10T05:54:40.645Z,99216.89
2018-08-10T05:57:11.314Z,99223.95
2018-08-10T05:59:43.483Z,99224.09
2018-08-10T06:02:15.872Z,99228.50
2018-08-10T06:04:46.729Z,99235.61
2018-08-10T06:07:17.455Z,99233.89
2018-08-10T06:09:48.743Z,99230.13
2018-08-10T06:12:19.618Z,99233.59
2018-08-10T06:14:50.485Z,99233.93
2018-08-10T06:17:21.716Z,99231.69
2018-08-10T06:19:53.321Z,99228.98
2018-08-10T06:22:24.390Z,99229.19
2018-08-10T06:24:55.466Z,99234.62
2018-08-10T06:27:26.272Z,99232.32
2018-08-10T06:29:57.057Z,99228.30
2018-08-10T06:32:28.124Z,99235.94
2018-08-10T06:34:59.232Z,99233.77
2018-08-10T06:37:31.652Z,99242.50
2018-08-10T06:40:02.831Z,99245.23
2018-08-10T06:42:33.466Z,99245.75
2018-08-10T06:45:04.368Z,99244.95
2018-08-10T06:47:35.887Z,99247.48
2018-08-10T06:50:09.430Z,99245.38
2018-08-10T06:52:40.083Z,99255.09
2018-08-10T06:55:12.556Z,99258.71
2018-08-10T06:57:44.378Z,99256.84
2018-08-10T07:00:16.264Z,99253.87
2018-08-10T07:02:47.157Z,99256.00
2018-08-10T07:05:20.348Z,99251.52
2018-08-10T07:07:53.595Z,99262.94
2018-08-10T07:10:28.241Z,99260.35
2018-08-10T07:12:59.432Z,99260.17
2018-08-10T07:15:38.506Z,99259.38
2018-08-10T07:18:45.364Z,99262.25
2018-08-10T07:21:17.323Z,99259.53
2018-08-10T07:23:50.602Z,99255.78
2018-08-10T07:29:25.164Z,99266.17
2018-08-10T07:31:57.024Z,99270.05
2018-08-10T07:34:30.120Z,99270.47
2018-08-10T07:37:02.063Z,99272.64
2018-08-10T07:39:33.154Z,99274.56
2018-08-10T07:42:08.084Z,99282.63
2018-08-10T07:44:38.998Z,99276.41
2018-08-10T07:47:10.715Z,99275.53
2018-08-10T07:49:42.915Z,99282.69
2018-08-10T07:52:14.346Z,99278.48
2018-08-10T07:54:45.144Z,99274.08
2018-08-10T07:57:16.037Z,99279.63
2018-08-10T07:59:46.930Z,99280.14
2018-08-10T08:02:17.858Z,99274.41
2018-08-10T08:04:49.385Z,99271.93
2018-08-10T08:07:22.356Z,99273.83
2018-08-10T08:09:53.253Z,99272.84
2018-08-10T08:12:24.016Z,99280.52
2018-08-10T08:14:55.108Z,99281.25
2018-08-10T08:17:26.493Z,99279.09
2018-08-10T08:19:58.190Z,99282.82
2018-08-10T08:22:30.268Z,99284.02
2018-08-10T08:25:02.687Z,99277.82
2018-08-10T08:27:33.566Z,99274.88
2018-08-10T08:30:04.567Z,99275.13
2018-08-10T08:32:35.661Z,99276.56
2018-08-10T08:35:06.967Z,99278.63
2018-08-10T08:37:37.781Z,99276.68
2018-08-10T08:40:21.095Z,99277.00
2018-08-10T08:42:52.458Z,99277.29
2018-08-10T08:46:26.752Z,99273.05
2018-08-10T08:48:57.361Z,99267.35
2018-08-10T08:51:28.120Z,99274.20
2018-08-10T08:54:15.733Z,99275.28
2018-08-10T08:56:47.780Z,99270.04
2018-08-10T08:59:18.410Z,99264.16
2018-08-10T09:01:49.724Z,99276.24
2018-08-10T09:05:23.229Z,99274.53
2018-08-10T09:07:54.127Z,99280.72
2018-08-10T09:10:24.913Z,99280.95
2018-08-10T09:12:56.285Z,99279.13
2018-08-10T09:15:27.170Z,99265.81
2018-08-10T09:17:58.498Z,99280.52
2018-08-10T09:20:31.544Z,99274.23
2018-08-10T09:23:02.410Z,99266.79
2018-08-10T09:25:33.608Z,99270.69
2018-08-10T09:28:04.589Z,99277.36
2018-08-10T09:30:35.765Z,99275.80
2018-08-10T09:33:06.517Z,99269.55
2018-08-10T09:35:38.169Z,99256.80
2018-08-10T09:38:09.519Z,99253.14
2018-08-10T09:40:42.768Z,99257.44
2018-08-10T09:43:13.929Z,99259.44
2018-08-10T09:45:44.869Z,99259.41
2018-08-10T09:48:15.677Z,99252.98
2018-08-10T09:50:46.432Z,99255.45
2018-08-10T09:53:17.952Z,99246.00
2018-08-10T09:55:49.742Z,99248.27
2018-08-10T09:58:24.430Z,99242.48
2018-08-10T10:00:55.393Z,99239.46
2018-08-10T10:03:27.367Z,99242.04
2018-08-10T10:06:00.017Z,99237.82
2018-08-10T10:08:30.998Z,99237.92
2018-08-10T10:11:02.785Z,99244.25
2018-08-10T10:13:34.694Z,99243.98
2018-08-10T10:16:05.648Z,99248.89
2018-08-10T10:18:36.494Z,99249.92
2018-08-10T10:21:07.483Z,99253.53
2018-08-10T10:23:38.293Z,99250.48
2018-08-10T10:26:09.175Z,99250.53
2018-08-10T10:28:40.139Z,99254.50
2018-08-10T10:31:11.764Z,99252.09
2018-08-10T10:33:44.310Z,99244.33
2018-08-10T10:36:15.512Z,99242.23
2018-08-10T10:38:47.519Z,99238.29
2018-08-10T10:41:19.976Z,99244.23
2018-08-10T10:43:51.059Z,99243.77
2018-08-10T10:46:21.854Z,99236.52
2018-08-10T10:48:53.786Z,99237.98
2018-08-10T10:51:34.637Z,99241.28
2018-08-10T10:54:06.214Z,99234.42
2018-08-10T10:56:37.362Z,99228.36
2018-08-10T10:59:08.437Z,99219.40
2018-08-10T11:01:39.762Z,99226.73
2018-08-10T11:04:10.920Z,99224.82
2018-08-10T11:06:42.112Z,99222.72
2018-08-10T11:09:13.228Z,99223.06
2018-08-10T11:11:46.741Z,99226.87
2018-08-10T11:14:17.570Z,99229.34
2018-08-10T11:16:49.005Z,99221.45
2018-08-10T11:19:20.596Z,99221.69
2018-08-10T11:21:52.331Z,99224.90
2018-08-10T11:24:23.883Z,99226.81
2018-08-10T11:26:55.227Z,99229.27
2018-08-10T11:29:31.436Z,99223.38
2018-08-10T11:32:03.761Z,99225.13
2018-08-10T11:34:36.064Z,99230.25
2018-08-10T11:37:07.460Z,99226.13
2018-08-10T11:39:39.602Z,99224.77
2018-08-10T11:42:12.750Z,99223.98
2018-08-10T11:44:44.717Z,99218.58
2018-08-10T11:47:17.415Z,99217.94
2018-08-10T11:49:50.253Z,99210.98
2018-08-10T11:52:20.902Z,99215.14
2018-08-10T11:54:51.609Z,99209.16
2018-08-10T11:57:22.777Z,99203.20
2018-08-10T11:59:53.836Z,99203.31
2018-08-10T12:02:25.633Z,99198.29
2018-08-10T12:04:57.709Z,99186.28
2018-08-10T12:07:30.116Z,99195.38
2018-08-10T12:10:01.310Z,99191.03
2018-08-10T12:12:32.162Z,99190.73
2018-08-10T12:15:04.634Z,99186.98
2018-08-10T12:17:35.900Z,99182.98
2018-08-10T12:20:06.995Z,99181.41
2018-08-10T12:22:37.948Z,99186.73
2018-08-10T12:25:10.996Z,99179.20
2018-08-10T12:27:42.537Z,99180.58
2018-08-10T12:30:14.795Z,99177.70
2018-08-10T12:32:46.151Z,99177.70
2018-08-10T12:35:17.911Z,99186.92
2018-08-10T12:37:48.811Z,99194.05
2018-08-10T12:40:20.518Z,99185.77
2018-08-10T12:42:51.353Z,99172.72
2018-08-10T12:45:25.089Z,99172.07
2018-08-10T12:47:55.920Z,99167.99
2018-08-10T12:50:27.152Z,99166.39
2018-08-10T12:52:57.825Z,99163.24
2018-08-10T12:55:29.139Z,99161.38
2018-08-10T12:58:00.480Z,99157.80
2018-08-10T13:00:31.488Z,99159.41
2018-08-10T13:03:02.375Z,99161.33
2018-08-10T13:05:33.845Z,99161.31
2018-08-10T13:08:05.461Z,99168.93
2018-08-10T13:10:36.312Z,99161.98
2018-08-10T13:13:08.624Z,99162.80
2018-08-10T13:15:39.431Z,99153.27
2018-08-10T13:18:11.338Z,99151.17
2018-08-10T13:20:46.099Z,99139.84
2018-08-10T13:23:19.523Z,99141.69
2018-08-10T13:25:51.153Z,99140.17
2018-08-10T13:28:22.281Z,99132.23
2018-08-10T13:30:53.350Z,99127.77
2018-08-10T13:33:25.067Z,99127.30
2018-08-10T13:35:57.071Z,99127.27
2018-08-10T13:38:31.341Z,99124.39
2018-08-10T13:41:02.475Z,99119.63
2018-08-10T13:43:34.314Z,99116.91
2018-08-10T13:46:07.279Z,99115.44
2018-08-10T13:48:39.349Z,99115.13
2018-08-10T13:51:12.903Z,99108.58
2018-08-10T13:53:44.889Z,99116.66
2018-08-10T13:56:16.277Z,99111.75
2018-08-10T13:58:48.427Z,99116.80
2018-08-10T14:01:19.680Z,99112.59
2018-08-10T14:03:52.061Z,99116.92
2018-08-10T14:06:25.611Z,99112.69
2018-08-10T14:08:57.408Z,99107.30
2018-08-10T14:11:29.771Z,99110.38
2018-08-10T14:14:01.375Z,99110.14
2018-08-10T14:16:32.864Z,99110.50
2018-08-10T14:19:03.619Z,99108.78
2018-08-10T14:21:35.580Z,99102.20
2018-08-10T14:24:08.679Z,99101.67
2018-08-10T14:26:39.519Z,99096.21
2018-08-10T14:29:11.074Z,99093.02
2018-08-10T14:31:41.927Z,99096.61
2018-08-10T14:34:13.209Z,99093.64
2018-08-10T14:36:45.215Z,99086.78
2018-08-10T14:39:19.025Z,99089.02
2018-08-10T14:41:50.036Z,99085.42
2018-08-10T14:44:21.394Z,99083.78
2018-08-10T14:46:53.698Z,99081.81
2018-08-10T14:49:25.173Z,99085.27
2018-08-10T14:52:01.629Z,99085.45
2018-08-10T14:54:36.214Z,99082.30
2018-08-10T14:57:08.791Z,99077.81
2018-08-10T14:59:42.328Z,99087.61
2018-08-10T15:02:13.611Z,99092.38
2018-08-10T15:04:46.764Z,99089.36
2018-08-10T15:07:19.011Z,99080.80
2018-08-10T15:09:51.018Z,99081.16
2018-08-10T15:12:22.294Z,99082.83
2018-08-10T15:14:53.432Z,99078.44
2018-08-10T15:17:24.992Z,99078.02
2018-08-10T15:19:57.993Z,99084.09
2018-08-10T15:22:29.175Z,99083.27
2018-08-10T15:25:00.480Z,99076.45
2018-08-10T15:27:31.385Z,99081.91
2018-08-10T15:30:03.758Z,99076.98
2018-08-10T15:32:34.455Z,99079.72
2018-08-10T15:35:06.368Z,99072.37
2018-08-10T15:37:37.611Z,99079.70
2018-08-10T15:40:11.280Z,99081.09
2018-08-10T15:42:43.346Z,99079.17
2018-08-10T15:45:15.441Z,99078.89
2018-08-10T15:47:47.003Z,99078.25
2018-08-10T15:50:19.116Z,99080.70
2018-08-10T15:52:50.157Z,99073.26
2018-08-10T15:55:21.229Z,99071.85
2018-08-10T15:57:52.323Z,99073.72
2018-08-10T16:00:25.904Z,99077.83
2018-08-10T16:02:57.441Z,99082.19
2018-08-10T16:05:29.419Z,99088.39
2018-08-10T16:08:02.098Z,99079.37
2018-08-10T16:10:34.249Z,99076.78
2018-08-10T16:13:05.637Z,99069.06
2018-08-10T16:15:38.513Z,99066.27
2018-08-10T16:18:10.513Z,99065.47
2018-08-10T16:20:42.067Z,99068.13
2018-08-10T16:23:13.318Z,99068.13
2018-08-10T16:25:45.054Z,99057.31
2018-08-10T16:28:17.784Z,99053.98
2018-08-10T16:30:48.864Z,99057.80
2018-08-10T16:33:21.285Z,99063.98
2018-08-10T16:35:51.859Z,99064.09
2018-08-10T16:38:22.935Z,99064.06
2018-08-10T16:40:54.338Z,99064.59
2018-08-10T16:43:26.183Z,99066.33
2018-08-10T16:45:57.028Z,99065.70
2018-08-10T16:48:27.720Z,99063.98
2018-08-10T16:50:58.331Z,99069.39
2018-08-10T16:53:28.978Z,99075.38
2018-08-10T16:56:01.157Z,99067.73
2018-08-10T16:58:33.205Z,99067.77
2018-08-10T17:01:04.604Z,99068.42
2018-08-10T17:03:35.228Z,99071.46
2018-08-10T17:06:06.284Z,99071.55
2018-08-10T17:08:36.998Z,99069.34
2018-08-10T17:11:07.827Z,99068.16
2018-08-10T17:13:39.399Z,99073.62
2018-08-10T17:16:16.558Z,99073.70
2018-08-10T17:18:48.415Z,99076.72
2018-08-10T17:21:19.971Z,99072.13
2018-08-10T17:23:51.663Z,99080.55
2018-08-10T17:26:22.656Z,99082.36
2018-08-10T17:28:54.100Z,99086.17
2018-08-10T17:31:25.933Z,99081.97
2018-08-10T17:33:57.377Z,99075.08
2018-08-10T17:36:29.700Z,99075.45
2018-08-10T17:39:00.397Z,99080.05
2018-08-10T17:41:31.455Z,99079.04
2018-08-10T17:44:02.970Z,99079.68
2018-08-10T17:46:34.775Z,99082.62
2018-08-10T17:49:06.211Z,99080.28
2018-08-10T17:51:36.907Z,99087.52
2018-08-10T17:54:08.443Z,99085.55
2018-08-10T17:56:39.849Z,99083.95
2018-08-10T17:59:10.983Z,99089.85
2018-08-10T18:01:41.929Z,99090.94
2018-08-10T18:04:13.132Z,99095.36
2018-08-10T18:06:44.269Z,99090.50
2018-08-10T18:09:15.607Z,99092.45
2018-08-10T18:11:47.194Z,99095.03
2018-08-10T18:14:19.562Z,99103.44
2018-08-10T18:16:50.942Z,99107.17
2018-08-10T18:19:22.704Z,99110.93
2018-08-10T18:21:53.668Z,99116.00
2018-08-10T18:24:25.698Z,99111.95
2018-08-10T18:26:57.230Z,99116.00
2018-08-10T18:29:28.184Z,99117.94
2018-08-10T18:32:00.580Z,99124.34
2018-08-10T18:34:31.462Z,99120.41
2018-08-10T18:37:02.329Z,99121.12
2018-08-10T18:39:34.014Z,99120.48
2018-08-10T18:42:06.220Z,99120.89
2018-08-10T18:44:38.029Z,99128.55
2018-08-10T18:47:10.453Z,99129.42
2018-08-10T18:49:42.381Z,99129.59
2018-08-10T18:52:14.186Z,99136.22
2018-08-10T18:54:45.672Z,99146.65
2018-08-10T18:57:17.790Z,99143.83
2018-08-10T18:59:49.536Z,99149.13
2018-08-10T19:02:22.307Z,99150.20
2018-08-10T19:04:54.877Z,99151.27
2018-08-10T19:07:26.326Z,99159.00
2018-08-10T19:10:00.353Z,99159.63
2018-08-10T19:12:34.487Z,99165.86
2018-08-10T19:15:07.231Z,99169.44
2018-08-10T19:17:40.179Z,99170.85
2018-08-10T19:20:13.387Z,99177.53
2018-08-10T19:22:45.568Z,99184.92
2018-08-10T19:25:17.826Z,99181.23
2018-08-10T19:27:50.196Z,99179.73
2018-08-10T19:30:24.710Z,99184.39
2018-08-10T19:32:56.658Z,99185.63
2018-08-10T19:35:28.841Z,99190.41
2018-08-10T19:38:00.480Z,99186.80
2018-08-10T19:40:32.320Z,99182.66
2018-08-10T19:43:03.768Z,99191.11
2018-08-10T19:45:35.758Z,99188.86
2018-08-10T19:48:08.373Z,99186.72
2018-08-10T19:50:41.665Z,99191.59
2018-08-10T19:53:13.945Z,99194.34
2018-08-10T19:55:46.318Z,99194.68
2018-08-10T19:58:17.974Z,99197.20
2018-08-10T20:00:49.654Z,99192.55
2018-08-10T20:03:21.774Z,99197.53
2018-08-10T20:05:53.527Z,99192.13
2018-08-10T20:08:25.707Z,99199.27
2018-08-10T20:10:57.666Z,99192.73
2018-08-10T20:13:29.538Z,99195.21
2018-08-10T20:16:01.623Z,99191.60
2018-08-10T20:18:34.719Z,99198.92
2018-08-10T20:21:10.942Z,99195.61
2018-08-10T20:23:43.321Z,99199.06
2018-08-10T20:26:15.668Z,99192.87
2018-08-10T20:28:47.550Z,99199.89
2018-08-10T20:31:20.013Z,99189.33
2018-08-10T20:33:51.974Z,99185.44
2018-08-10T20:36:26.404Z,99184.73
2018-08-10T20:38:57.663Z,99196.05
2018-08-10T20:41:29.369Z,99192.97
2018-08-10T20:44:02.732Z,99200.91
2018-08-10T20:46:34.488Z,99200.27
2018-08-10T20:49:06.527Z,99199.88
2018-08-10T20:51:39.345Z,99194.33
2018-08-10T20:54:11.046Z,99194.70
2018-08-10T20:56:42.831Z,99197.78
2018-08-10T20:59:14.463Z,99199.41
2018-08-10T21:01:46.297Z,99197.83
2018-08-10T21:04:17.397Z,99203.72
2018-08-10T21:06:48.512Z,99204.64
2018-08-10T21:09:19.252Z,99198.85
2018-08-10T21:11:50.206Z,99209.53
2018-08-10T21:14:21.032Z,99213.49
2018-08-10T21:16:51.745Z,99217.59
2018-08-10T21:19:22.658Z,99224.58
2018-08-10T21:21:53.430Z,99219.67
2018-08-10T21:24:23.999Z,99223.63
2018-08-10T21:26:56.652Z,99218.82
2018-08-10T21:29:27.283Z,99228.03
2018-08-10T21:31:57.847Z,99230.86
2018-08-10T21:34:29.033Z,99224.34
2018-08-10T21:37:00.295Z,99228.31
2018-08-10T21:39:31.244Z,99234.30
2018-08-10T21:42:01.818Z,99232.99
2018-08-10T21:44:32.465Z,99238.39
2018-08-10T21:47:03.193Z,99239.23
2018-08-10T21:49:33.746Z,99240.91
2018-08-10T21:52:05.408Z,99241.09
2018-08-10T21:54:36.175Z,99239.97
2018-08-10T21:57:06.886Z,99237.45
2018-08-10T21:59:37.656Z,99230.05
2018-08-10T22:02:11.550Z,99234.41
2018-08-10T22:04:42.441Z,99240.61
2018-08-10T22:07:13.489Z,99244.61
2018-08-10T22:09:44.085Z,99240.78
2018-08-10T22:12:18.953Z,99249.05
2018-08-10T22:14:55.121Z,99248.11
2018-08-10T22:17:31.219Z,99250.19
2018-08-10T22:20:02.014Z,99251.22
2018-08-10T22:22:32.643Z,99251.69
2018-08-10T22:25:03.173Z,99245.72
2018-08-10T22:27:34.279Z,99250.38
2018-08-10T22:30:06.063Z,99256.52
2018-08-10T22:32:36.768Z,99261.01
2018-08-10T22:35:07.893Z,99250.55
2018-08-10T22:37:38.744Z,99259.36
2018-08-10T22:40:09.937Z,99254.87
2018-08-10T22:42:40.627Z,99254.19
2018-08-10T22:45:11.283Z,99259.36
2018-08-10T22:47:41.844Z,99265.88
2018-08-10T22:50:12.645Z,99261.39
2018-08-10T22:52:43.393Z,99260.56
2018-08-10T22:55:14.032Z,99263.89
2018-08-10T22:57:45.316Z,99265.23
2018-08-10T23:00:15.790Z,99261.91
2018-08-10T23:02:46.883Z,99258.75
2018-08-10T23:05:17.464Z,99261.06
2018-08-10T23:07:48.467Z,99261.73
2018-08-10T23:10:19.196Z,99272.73
2018-08-10T23:12:49.931Z,99269.55
2018-08-10T23:15:20.588Z,99271.72
2018-08-10T23:17:51.312Z,99265.20
2018-08-10T23:20:21.968Z,99272.83
2018-08-10T23:22:53.691Z,99265.02
2018-08-10T23:25:24.422Z,99264.31
2018-08-10T23:27:55.002Z,99266.47
2018-08-10T23:30:25.614Z,99253.17
2018-08-10T23:32:56.124Z,99252.52
2018-08-10T23:35:26.988Z,99258.20
2018-08-10T23:37:57.738Z,99266.18
2018-08-10T23:40:28.691Z,99262.86
2018-08-10T23:42:59.142Z,99266.00
2018-08-10T23:45:29.901Z,99255.05
2018-08-10T23:48:00.590Z,99261.66
2018-08-10T23:50:31.243Z,99256.98
2018-08-10T23:53:02.346Z,99253.17
2018-08-10T23:55:33.429Z,99249.84
2018-08-10T23:58:04.777Z,99246.16
